createdAt,value
2022-08-22T00:02:32.927Z,100275.22
2022-08-22T00:02:59.903Z,100183.16
2022-08-22T00:03:07.476Z,100204.94
2022-08-22T00:05:46.575Z,100264.84
2022-08-22T00:09:24.518Z,100262.19
2022-08-22T00:12:34.332Z,100258.28
2022-08-22T00:15:57.672Z,100262.91
2022-08-22T00:19:20.995Z,100266.69
2022-08-22T00:22:47.623Z,100257.44
2022-08-22T00:26:04.221Z,100247.19
2022-08-22T00:29:15.527Z,100248.91
2022-08-22T00:32:40.013Z,100258.06
2022-08-22T00:35:48.166Z,100248.03
2022-08-22T00:39:28.348Z,100247.81
2022-08-22T00:43:11.958Z,100250.63
2022-08-22T00:46:28.961Z,100250.00
2022-08-22T00:50:08.019Z,100250.00
2022-08-22T00:53:36.791Z,100239.16
2022-08-22T00:56:58.360Z,100254.75
2022-08-22T01:00:13.094Z,100245.56
2022-08-22T01:03:36.902Z,100258.22
2022-08-22T01:07:03.025Z,100257.50
2022-08-22T01:10:22.837Z,100240.47
2022-08-22T01:13:37.784Z,100233.06
2022-08-22T01:17:20.438Z,100227.69
2022-08-22T01:20:49.705Z,100225.34
2022-08-22T01:24:18.057Z,100223.16
2022-08-22T01:27:51.079Z,100234.34
2022-08-22T01:31:12.212Z,100228.47
2022-08-22T01:34:51.533Z,100232.25
2022-08-22T01:38:21.511Z,100230.44
2022-08-22T01:41:32.034Z,100238.47
2022-08-22T01:44:56.918Z,100230.38
2022-08-22T01:48:31.542Z,100237.13
2022-08-22T01:51:54.996Z,100231.78
2022-08-22T01:55:02.772Z,100237.88
2022-08-22T01:58:16.946Z,100234.84
2022-08-22T02:01:38.002Z,100232.16
2022-08-22T02:04:48.209Z,100236.16
2022-08-22T02:07:55.423Z,100235.91
2022-08-22T02:11:05.937Z,100236.88
2022-08-22T02:14:31.553Z,100227.22
2022-08-22T02:17:50.382Z,100234.28
2022-08-22T02:21:24.409Z,100229.84
2022-08-22T02:24:44.629Z,100230.59
2022-08-22T02:27:57.375Z,100233.19
2022-08-22T02:31:09.329Z,100232.63
2022-08-22T02:34:32.214Z,100236.56
2022-08-22T02:37:36.666Z,100224.66
2022-08-22T02:41:14.140Z,100226.59
2022-08-22T02:44:28.493Z,100229.75
2022-08-22T02:47:46.057Z,100229.03
2022-08-22T02:51:10.391Z,100233.03
2022-08-22T02:54:27.863Z,100234.09
2022-08-22T02:57:53.287Z,100234.34
2022-08-22T03:00:57.530Z,100223.84
2022-08-22T03:04:22.351Z,100229.44
2022-08-22T03:07:33.480Z,100226.03
2022-08-22T03:10:45.682Z,100222.84
2022-08-22T03:14:05.554Z,100235.00
2022-08-22T03:17:24.215Z,100226.03
2022-08-22T03:21:12.779Z,100223.09
2022-08-22T03:24:44.399Z,100226.38
2022-08-22T03:27:55.092Z,100229.03
2022-08-22T03:31:23.441Z,100230.34
2022-08-22T03:34:26.990Z,100220.34
2022-08-22T03:37:31.305Z,100229.44
2022-08-22T03:40:42.766Z,100225.28
2022-08-22T03:43:59.014Z,100230.63
2022-08-22T03:47:18.474Z,100240.06
2022-08-22T03:50:46.308Z,100234.91
2022-08-22T03:54:15.305Z,100226.78
2022-08-22T03:57:31.964Z,100231.97
2022-08-22T04:00:48.602Z,100232.41
2022-08-22T04:04:31.601Z,100243.31
2022-08-22T04:08:00.003Z,100240.75
2022-08-22T04:11:21.450Z,100240.75
2022-08-22T04:14:35.959Z,100246.75
2022-08-22T04:18:08.415Z,100245.59
2022-08-22T04:21:35.346Z,100238.66
2022-08-22T04:24:48.970Z,100246.31
2022-08-22T04:28:00.177Z,100246.75
2022-08-22T04:31:10.171Z,100246.97
2022-08-22T04:34:22.321Z,100252.31
2022-08-22T04:37:40.443Z,100243.66
2022-08-22T04:40:54.189Z,100244.19
2022-08-22T04:44:05.722Z,100253.59
2022-08-22T04:47:28.507Z,100254.81
2022-08-22T04:50:45.474Z,100250.97
2022-08-22T04:53:52.542Z,100250.13
2022-08-22T04:57:51.591Z,100246.00
2022-08-22T05:01:15.324Z,100253.78
2022-08-22T05:04:36.817Z,100260.53
2022-08-22T05:07:47.035Z,100262.88
2022-08-22T05:10:50.612Z,100256.16
2022-08-22T05:13:57.398Z,100264.94
2022-08-22T05:17:00.243Z,100262.88
2022-08-22T05:20:12.085Z,100263.41
2022-08-22T05:23:20.269Z,100268.31
2022-08-22T05:26:22.169Z,100261.25
2022-08-22T05:29:28.695Z,100261.44
2022-08-22T05:32:38.175Z,100263.59
2022-08-22T05:35:49.539Z,100265.59
2022-08-22T05:39:00.492Z,100264.00
2022-08-22T05:42:03.705Z,100264.31
2022-08-22T05:45:08.534Z,100263.97
2022-08-22T05:48:22.648Z,100271.66
2022-08-22T05:51:30.452Z,100267.34
2022-08-22T05:54:36.450Z,100265.19
2022-08-22T05:57:42.287Z,100269.91
2022-08-22T06:00:51.984Z,100268.16
2022-08-22T06:03:59.393Z,100270.94
2022-08-22T06:07:18.162Z,100267.22
2022-08-22T06:10:31.031Z,100269.75
2022-08-22T06:13:41.443Z,100276.84
2022-08-22T06:16:54.431Z,100277.41
2022-08-22T06:19:56.026Z,100271.38
2022-08-22T06:23:01.829Z,100272.88
2022-08-22T06:26:05.411Z,100265.94
2022-08-22T06:29:08.722Z,100274.13
2022-08-22T06:32:16.223Z,100275.81
2022-08-22T06:35:29.762Z,100281.47
2022-08-22T06:38:34.802Z,100282.22
2022-08-22T06:41:42.361Z,100285.03
2022-08-22T06:44:59.701Z,100287.59
2022-08-22T06:48:07.355Z,100290.72
2022-08-22T06:51:12.324Z,100291.69
2022-08-22T06:54:23.567Z,100286.56
2022-08-22T06:57:43.712Z,100284.81
2022-08-22T07:01:05.679Z,100292.88
2022-08-22T07:04:12.963Z,100283.81
2022-08-22T07:07:18.744Z,100291.53
2022-08-22T07:10:21.969Z,100289.41
2022-08-22T07:13:25.412Z,100292.28
2022-08-22T07:16:33.851Z,100285.50
2022-08-22T07:19:41.561Z,100287.50
2022-08-22T07:22:54.195Z,100296.34
2022-08-22T07:26:26.870Z,100304.53
2022-08-22T07:29:54.246Z,100305.31
2022-08-22T07:33:15.297Z,100307.63
2022-08-22T07:36:48.983Z,100307.78
2022-08-22T07:40:00.822Z,100304.69
2022-08-22T07:43:33.294Z,100309.19
2022-08-22T07:46:48.226Z,100310.13
2022-08-22T07:49:54.901Z,100315.47
2022-08-22T07:53:04.915Z,100309.91
2022-08-22T07:56:17.754Z,100314.63
2022-08-22T07:59:21.350Z,100314.38
2022-08-22T08:02:24.004Z,100316.34
2022-08-22T08:05:28.480Z,100322.19
2022-08-22T08:08:41.507Z,100313.53
2022-08-22T08:11:44.853Z,100315.91
2022-08-22T08:14:53.306Z,100314.94
2022-08-22T08:18:00.363Z,100320.19
2022-08-22T08:21:08.409Z,100321.41
2022-08-22T08:24:16.148Z,100320.19
2022-08-22T08:27:40.801Z,100313.53
2022-08-22T08:30:53.659Z,100311.66
2022-08-22T08:34:24.323Z,100306.28
2022-08-22T08:37:37.199Z,100295.22
2022-08-22T08:41:24.250Z,100292.63
2022-08-22T08:44:44.322Z,100297.78
2022-08-22T08:48:24.930Z,100293.72
2022-08-22T08:52:03.829Z,100302.97
2022-08-22T08:55:22.006Z,100297.00
2022-08-22T08:58:55.097Z,100296.38
2022-08-22T09:02:03.993Z,100295.34
2022-08-22T09:05:19.546Z,100295.19
2022-08-22T09:08:59.574Z,100290.63
2022-08-22T09:12:08.514Z,100288.38
2022-08-22T09:15:32.315Z,100290.66
2022-08-22T09:18:48.447Z,100293.00
2022-08-22T09:22:02.278Z,100295.84
2022-08-22T09:25:25.192Z,100298.16
2022-08-22T09:28:34.731Z,100300.47
2022-08-22T09:31:55.889Z,100305.06
2022-08-22T09:35:15.090Z,100295.94
2022-08-22T09:38:51.365Z,100292.44
2022-08-22T09:42:21.047Z,100293.72
2022-08-22T09:46:07.397Z,100298.53
2022-08-22T09:49:17.820Z,100289.69
2022-08-22T09:52:43.741Z,100289.38
2022-08-22T09:56:15.303Z,100278.28
2022-08-22T09:59:44.775Z,100274.59
2022-08-22T10:03:10.946Z,100273.53
2022-08-22T10:06:20.864Z,100271.06
2022-08-22T10:09:31.326Z,100263.94
2022-08-22T10:12:59.531Z,100266.47
2022-08-22T10:16:37.112Z,100264.06
2022-08-22T10:19:47.521Z,100258.88
2022-08-22T10:23:17.657Z,100253.09
2022-08-22T10:26:50.705Z,100241.56
2022-08-22T10:30:04.347Z,100240.75
2022-08-22T10:33:20.237Z,100235.16
2022-08-22T10:36:37.798Z,100239.22
2022-08-22T10:39:46.556Z,100238.19
2022-08-22T10:42:59.468Z,100237.44
2022-08-22T10:46:06.958Z,100233.81
2022-08-22T10:49:39.153Z,100228.03
2022-08-22T10:53:15.127Z,100232.06
2022-08-22T10:56:34.919Z,100216.72
2022-08-22T10:59:56.532Z,100223.03
2022-08-22T11:03:23.420Z,100209.09
2022-08-22T11:06:50.303Z,100212.53
2022-08-22T11:09:59.535Z,100211.84
2022-08-22T11:13:14.909Z,100205.78
2022-08-22T11:16:19.265Z,100211.56
2022-08-22T11:19:37.441Z,100204.00
2022-08-22T11:22:59.339Z,100193.78
2022-08-22T11:26:47.272Z,100203.22
2022-08-22T11:30:18.122Z,100200.41
2022-08-22T11:33:47.438Z,100199.56
2022-08-22T11:36:56.421Z,100186.31
2022-08-22T11:40:29.339Z,100194.47
2022-08-22T11:43:39.775Z,100193.66
2022-08-22T11:46:45.643Z,100178.28
2022-08-22T11:50:02.562Z,100175.28
2022-08-22T11:53:20.270Z,100178.66
2022-08-22T11:56:41.683Z,100168.63
2022-08-22T11:59:43.421Z,100169.56
2022-08-22T12:03:19.627Z,100169.81
2022-08-22T12:06:59.041Z,100166.34
2022-08-22T12:10:13.833Z,100167.50
2022-08-22T12:13:49.162Z,100167.88
2022-08-22T12:17:50.823Z,100163.34
2022-08-22T12:21:01.365Z,100166.50
2022-08-22T12:24:20.835Z,100158.84
2022-08-22T12:27:29.298Z,100155.75
2022-08-22T12:31:07.437Z,100154.63
2022-08-22T12:34:28.372Z,100151.63
2022-08-22T12:37:52.179Z,100147.78
2022-08-22T12:41:36.096Z,100141.09
2022-08-22T12:45:13.037Z,100142.03
2022-08-22T12:48:35.682Z,100138.72
2022-08-22T12:51:58.925Z,100139.06
2022-08-22T12:55:27.328Z,100136.19
2022-08-22T12:58:46.052Z,100126.94
2022-08-22T13:01:56.594Z,100129.00
2022-08-22T13:05:09.136Z,100126.66
2022-08-22T13:08:20.007Z,100126.00
2022-08-22T13:11:23.650Z,100126.19
2022-08-22T13:14:27.656Z,100122.91
2022-08-22T13:17:29.949Z,100118.97
2022-08-22T13:20:37.382Z,100116.66
2022-08-22T13:23:44.770Z,100118.56
2022-08-22T13:26:55.369Z,100110.53
2022-08-22T13:30:04.590Z,100108.38
2022-08-22T13:33:10.933Z,100108.72
2022-08-22T13:36:16.911Z,100109.56
2022-08-22T13:39:19.752Z,100105.19
2022-08-22T13:42:30.961Z,100102.19
2022-08-22T13:45:36.043Z,100107.38
2022-08-22T13:48:55.725Z,100109.97
2022-08-22T13:52:31.666Z,100096.03
2022-08-22T13:55:45.352Z,100095.91
2022-08-22T13:58:56.337Z,100100.34
2022-08-22T14:02:15.268Z,100089.94
2022-08-22T14:05:25.110Z,100094.25
2022-08-22T14:08:31.738Z,100098.44
2022-08-22T14:11:45.240Z,100084.19
2022-08-22T14:14:54.247Z,100090.16
2022-08-22T14:18:03.378Z,100091.00
2022-08-22T14:21:40.074Z,100087.31
2022-08-22T14:24:47.701Z,100082.41
2022-08-22T14:28:01.285Z,100083.25
2022-08-22T14:31:13.774Z,100079.47
2022-08-22T14:34:16.203Z,100069.88
2022-08-22T14:37:23.585Z,100070.28
2022-08-22T14:40:29.186Z,100069.38
2022-08-22T14:43:33.645Z,100069.91
2022-08-22T14:46:45.254Z,100054.72
2022-08-22T14:49:55.554Z,100053.75
2022-08-22T14:53:18.211Z,100051.41
2022-08-22T14:56:21.570Z,100050.94
2022-08-22T14:59:35.169Z,100048.31
2022-08-22T15:02:37.197Z,100044.81
2022-08-22T15:05:45.649Z,100044.34
2022-08-22T15:08:50.562Z,100051.88
2022-08-22T15:11:53.345Z,100034.94
2022-08-22T15:15:12.782Z,100046.06
2022-08-22T15:18:33.588Z,100035.94
2022-08-22T15:21:41.302Z,100030.50
2022-08-22T15:24:56.351Z,100032.63
2022-08-22T15:28:06.767Z,100027.59
2022-08-22T15:31:18.756Z,100027.84
2022-08-22T15:34:34.267Z,100029.22
2022-08-22T15:37:55.437Z,100031.56
2022-08-22T15:41:25.276Z,100030.28
2022-08-22T15:44:37.245Z,100037.66
2022-08-22T15:47:46.901Z,100034.97
2022-08-22T15:51:04.659Z,100030.59
2022-08-22T15:54:25.339Z,100027.47
2022-08-22T15:57:29.082Z,100020.53
2022-08-22T16:00:45.214Z,100023.28
2022-08-22T16:03:58.513Z,100014.16
2022-08-22T16:07:01.453Z,100020.44
2022-08-22T16:10:09.649Z,100016.66
2022-08-22T16:13:26.382Z,100016.69
2022-08-22T16:16:49.811Z,100012.13
2022-08-22T16:20:19.984Z,100014.19
2022-08-22T16:23:22.525Z,100009.66
2022-08-22T16:26:30.056Z,99998.53
2022-08-22T16:29:41.239Z,100006.75
2022-08-22T16:32:51.742Z,100003.16
2022-08-22T16:36:21.110Z,100002.50
2022-08-22T16:39:22.737Z,100007.41
2022-08-22T16:42:35.530Z,100007.94
2022-08-22T16:45:40.781Z,100012.03
2022-08-22T16:48:42.261Z,100010.94
2022-08-22T16:52:25.900Z,99998.47
2022-08-22T16:55:40.859Z,100011.41
2022-08-22T16:59:06.085Z,100008.50
2022-08-22T17:02:28.872Z,100011.09
2022-08-22T17:06:23.104Z,100012.75
2022-08-22T17:09:43.050Z,100017.31
2022-08-22T17:13:17.137Z,100016.28
2022-08-22T17:16:38.100Z,100020.25
2022-08-22T17:19:42.486Z,100026.16
2022-08-22T17:23:00.086Z,100025.63
2022-08-22T17:26:22.789Z,100026.28
2022-08-22T17:29:47.702Z,100025.81
2022-08-22T17:33:10.886Z,100032.28
2022-08-22T17:36:26.708Z,100027.50
2022-08-22T17:39:36.069Z,100032.66
2022-08-22T17:42:58.679Z,100029.97
2022-08-22T17:46:17.276Z,100032.75
2022-08-22T17:49:41.865Z,100028.44
2022-08-22T17:52:59.549Z,100033.31
2022-08-22T17:56:14.392Z,100034.91
2022-08-22T17:59:20.612Z,100045.75
2022-08-22T18:02:28.621Z,100040.59
2022-08-22T18:05:36.397Z,100041.13
2022-08-22T18:12:23.062Z,100045.34
2022-08-22T18:15:47.219Z,100049.00
2022-08-22T18:19:00.861Z,100048.88
2022-08-22T18:22:10.843Z,100056.41
2022-08-22T18:25:18.024Z,100049.34
2022-08-22T18:28:34.009Z,100050.41
2022-08-22T18:31:51.160Z,100055.97
2022-08-22T18:35:15.634Z,100062.75
2022-08-22T18:38:30.009Z,100047.72
2022-08-22T18:41:38.689Z,100063.00
2022-08-22T18:44:44.513Z,100071.38
2022-08-22T18:47:55.748Z,100061.34
2022-08-22T18:51:27.570Z,100073.44
2022-08-22T18:54:44.844Z,100074.50
2022-08-22T18:58:05.034Z,100069.09
2022-08-22T19:01:36.286Z,100077.25
2022-08-22T19:05:07.132Z,100082.38
2022-08-22T19:08:30.303Z,100081.19
2022-08-22T19:11:57.930Z,100082.84
2022-08-22T19:15:34.436Z,100081.03
2022-08-22T19:18:55.694Z,100083.38
2022-08-22T19:22:21.730Z,100097.94
2022-08-22T19:25:26.376Z,100097.78
2022-08-22T19:28:36.005Z,100095.56
2022-08-22T19:31:41.077Z,100097.28
2022-08-22T19:34:46.887Z,100100.97
2022-08-22T19:38:01.151Z,100106.66
2022-08-22T19:41:03.675Z,100111.22
2022-08-22T19:44:31.245Z,100105.16
2022-08-22T19:47:38.380Z,100106.69
2022-08-22T19:50:40.103Z,100117.63
2022-08-22T19:54:05.943Z,100117.13
2022-08-22T19:57:19.181Z,100118.78
2022-08-22T20:00:41.088Z,100113.66
2022-08-22T20:03:48.582Z,100116.38
2022-08-22T20:07:15.359Z,100118.69
2022-08-22T20:10:46.909Z,100122.03
2022-08-22T20:13:49.668Z,100114.56
2022-08-22T20:17:05.412Z,100114.16
2022-08-22T20:20:35.760Z,100126.34
2022-08-22T20:23:37.661Z,100120.91
2022-08-22T20:26:57.336Z,100117.50
2022-08-22T20:30:13.294Z,100121.19
2022-08-22T20:33:26.351Z,100118.25
2022-08-22T20:36:29.531Z,100126.66
2022-08-22T20:39:58.973Z,100123.44
2022-08-22T20:43:10.631Z,100125.94
2022-08-22T20:46:24.032Z,100127.72
2022-08-22T20:49:32.345Z,100124.59
2022-08-22T20:52:44.297Z,100131.34
2022-08-22T20:55:55.881Z,100129.81
2022-08-22T20:59:01.016Z,100137.84
2022-08-22T21:02:12.257Z,100136.75
2022-08-22T21:05:13.617Z,100137.22
2022-08-22T21:08:24.296Z,100138.22
2022-08-22T21:11:40.071Z,100140.03
2022-08-22T21:14:46.054Z,100144.81
2022-08-22T21:17:47.557Z,100150.13
2022-08-22T21:20:49.033Z,100149.56
2022-08-22T21:24:01.099Z,100154.38
2022-08-22T21:27:03.575Z,100151.31
2022-08-22T21:30:09.638Z,100153.94
2022-08-22T21:33:23.928Z,100149.81
2022-08-22T21:36:29.107Z,100150.84
2022-08-22T21:39:35.631Z,100155.38
2022-08-22T21:42:40.342Z,100155.84
2022-08-22T21:45:44.192Z,100165.94
2022-08-22T21:48:59.247Z,100164.94
2022-08-22T21:52:00.767Z,100168.25
2022-08-22T21:55:36.803Z,100161.88
2022-08-22T21:58:38.782Z,100161.63
2022-08-22T22:01:42.824Z,100160.63
2022-08-22T22:04:47.327Z,100168.63
2022-08-22T22:07:48.760Z,100160.16
2022-08-22T22:10:53.174Z,100159.84
2022-08-22T22:13:54.629Z,100168.53
2022-08-22T22:16:56.083Z,100166.69
2022-08-22T22:19:57.639Z,100172.81
2022-08-22T22:22:59.314Z,100178.19
2022-08-22T22:26:04.016Z,100176.38
2022-08-22T22:29:05.653Z,100182.47
2022-08-22T22:32:10.386Z,100180.75
2022-08-22T22:35:13.660Z,100189.44
2022-08-22T22:38:15.433Z,100189.31
2022-08-22T22:41:19.088Z,100180.41
2022-08-22T22:44:21.646Z,100191.75
2022-08-22T22:47:28.754Z,100195.44
2022-08-22T22:50:30.405Z,100194.91
2022-08-22T22:53:38.384Z,100194.19
2022-08-22T22:56:41.968Z,100205.66
2022-08-22T22:59:49.339Z,100211.19
2022-08-22T23:02:52.550Z,100212.50
2022-08-22T23:05:53.978Z,100212.75
2022-08-22T23:08:55.829Z,100216.75
2022-08-22T23:11:57.281Z,100211.06
2022-08-22T23:14:58.884Z,100216.63
2022-08-22T23:18:00.540Z,100217.84
2022-08-22T23:21:28.947Z,100214.72
2022-08-22T23:24:31.116Z,100223.38
2022-08-22T23:27:32.574Z,100234.88
2022-08-22T23:30:34.058Z,100233.00
2022-08-22T23:33:35.482Z,100230.59
2022-08-22T23:36:38.088Z,100232.16
2022-08-22T23:39:39.741Z,100239.38
2022-08-22T23:42:41.653Z,100235.69
2022-08-22T23:45:43.123Z,100235.09
2022-08-22T23:48:44.742Z,100233.09
2022-08-22T23:51:47.504Z,100236.50
2022-08-22T23:54:50.221Z,100233.66
2022-08-22T23:57:55.923Z,100231.63
